Waldron, Missouri
Current Conditions -  °F | °C
As of 2:53 AM on Friday 19 Dec 2014 (Local Time) from KMCI Reporting Station
Haze Haze  
Wind Chill: 31°   Ceiling: 400
Heat Index: 31°   Visibility: 1.2mi
Dew Point: 30°   Wind: 3mph
Humidity: 96%   Direction: 340°NNW
Pressure: 30.26"   Gusts: NA
Location:  39.22°N, 94.79°W
Report Text: KMCI 190853Z 34003KT 1 1/4SM BR OVC004 M01/M01 A3026 RMK AO2 SLP255 T10061011 55001 $
Loading
Personal Weather Stations






























Interactive Weather Map New forecast layout! Learn more

10-Day Weather Forecast

Advertisements
Track Severe Weather on mobile